Mary Ellen — WDB4416 — position and weather

sailwx.info

Track history (hours):
 
Tides and Currents Weather Stations Pressure Air Temp Water Temp Dewpoint Dewpoint Depression Visibility Wind Speed Wind Dir Waves Ship Positions

Mary Ellen

Owner: CROSS SOUND FERRY SERVICES INC, NEW LONDON, CT. More information available from US FCC via Universal Licensing System and Coast Guard Vessel Documentation Center.

Last reported at 2017-Nov-19 21:41 UTC. Time now 2017-Nov-21 22:58 UTC.
Position N 41°14' W 072°09'.

Length 80 m; draft 3.3 m.

Type: Passenger vessel. MMSI: 366898190.

Date/timePositionNaut miles runAvg speedWind from/ knotsBaromVisibWave heightAir tempDewpointWater temp
2017-Nov-19 21:41N 41°14' W 072°09'3 0.4
2017-Nov-19 15:42N 41°13' W 072°05'312.8
2017-Nov-19 15:26N 41°16' W 072°05'1 0.6
2017-Nov-19 14:05N 41°17' W 072°06'114.0
2017-Nov-19 14:00N 41°16' W 072°07'712.9
2017-Nov-19 13:27N 41°11' W 072°13'1 1.8
2017-Nov-19 12:48N 41°10' W 072°13'310.9
2017-Nov-19 12:30N 41°12' W 072°11'6 0.7
2017-Nov-19 03:23N 41°17' W 072°06'513.8
2017-Nov-19 03:00N 41°14' W 072°11'5 6.6
2017-Nov-19 02:13N 41°09' W 072°14'3 9.7
2017-Nov-19 01:56N 41°12' W 072°13'614.9
2017-Nov-19 01:30N 41°16' W 072°07'1 0.9
2017-Nov-18 23:54N 41°17' W 072°06'513.4
2017-Nov-18 23:30N 41°13' W 072°10'5 4.2
2017-Nov-18 22:17N 41°09' W 072°14'2 8.7
2017-Nov-18 22:00N 41°11' W 072°13'612.9
2017-Nov-18 21:30N 41°16' W 072°07'3 1.7
2017-Nov-18 19:57N 41°18' W 072°05'715.1
2017-Nov-18 19:30N 41°13' W 072°11'4 3.5
2017-Nov-18 18:15N 41°09' W 072°14'310.9
2017-Nov-18 18:00N 41°12' W 072°13'612.3
2017-Nov-18 17:30N 41°16' W 072°07'1 0.9
2017-Nov-18 15:53N 41°17' W 072°06'514.0
2017-Nov-18 15:31N 41°13' W 072°10'5 3.5
2017-Nov-18 14:10N 41°09' W 072°14'1 7.8
2017-Nov-18 14:00N 41°10' W 072°13'713.9
2017-Nov-18 13:30N 41°16' W 072°08'2 0.2
2017-Nov-18 02:26N 41°17' W 072°05'613.6
2017-Nov-18 02:00N 41°13' W 072°10'4 3.3
2017-Nov-18 00:39N 41°09' W 072°14'1 9.1
2017-Nov-18 00:30N 41°10' W 072°14'814.9
2017-Nov-18 00:00N 41°16' W 072°07'1 0.7
2017-Nov-17 22:23N 41°17' W 072°06'613.9
2017-Nov-17 21:58N 41°12' W 072°11'3 2.1
2017-Nov-17 20:40N 41°10' W 072°13'312.7
2017-Nov-17 20:27N 41°13' W 072°12'3 0.4
2017-Nov-17 12:38N 41°10' W 072°13'211.4
2017-Nov-17 12:30N 41°11' W 072°14'815.3
2017-Nov-17 12:00N 41°16' W 072°07'  
2017-Nov-13 21:59N 41°17' W 072°06'0 0.0
2017-Nov-13 01:47N 41°17' W 072°06'414.4
2017-Nov-13 01:31N 41°14' W 072°09'6 4.4
2017-Nov-13 00:13N 41°09' W 072°14'211.1
2017-Nov-13 00:01N 41°12' W 072°14'714.2
2017-Nov-12 23:30N 41°16' W 072°07'1 0.5
2017-Nov-12 21:55N 41°17' W 072°06'612.9
2017-Nov-12 21:28N 41°13' W 072°11'4 3.0
2017-Nov-12 20:07N 41°09' W 072°14'1 9.4
2017-Nov-12 20:00N 41°10' W 072°13'8 3.8
2017-Nov-12 17:50N 41°16' W 072°06'413.7
2017-Nov-12 17:31N 41°13' W 072°10'5 4.0
2017-Nov-12 16:15N 41°09' W 072°14'312.0
2017-Nov-12 16:00N 41°12' W 072°12'612.4
2017-Nov-12 15:30N 41°16' W 072°07'1 0.5
2017-Nov-12 13:48N 41°16' W 072°06'414.4
2017-Nov-12 13:30N 41°13' W 072°10'5 0.4
2017-Nov-12 02:12N 41°09' W 072°14'312.1
2017-Nov-12 01:58N 41°12' W 072°12'612.3
2017-Nov-12 01:28N 41°16' W 072°07'1 0.8
2017-Nov-11 23:56N 41°17' W 072°05'614.1
2017-Nov-11 23:30N 41°12' W 072°11'3 2.5
2017-Nov-11 22:08N 41°09' W 072°13'212.1
2017-Nov-11 21:56N 41°12' W 072°13'7 3.7
2017-Nov-11 19:58N 41°17' W 072°06'10 5.4
2017-Nov-11 18:10N 41°09' W 072°14'1 8.1
2017-Nov-11 18:00N 41°10' W 072°13'814.4
2017-Nov-11 17:29N 41°16' W 072°07'1 0.8
2017-Nov-11 15:56N 41°17' W 072°06'613.7
2017-Nov-11 15:30N 41°12' W 072°11'4 2.9
2017-Nov-11 14:11N 41°09' W 072°14'212.2
2017-Nov-11 14:00N 41°11' W 072°13'612.6
2017-Nov-11 13:29N 41°16' W 072°07'1 0.1
2017-Nov-11 02:16N 41°16' W 072°06'415.1
2017-Nov-11 02:00N 41°14' W 072°10'5 4.1
2017-Nov-11 00:44N 41°09' W 072°14'310.9
2017-Nov-11 00:29N 41°12' W 072°13'612.7
2017-Nov-10 23:59N 41°16' W 072°07'0 0.2
2017-Nov-10 22:21N 41°16' W 072°07'0 0.1
2017-Nov-10 18:25N 41°16' W 072°07'512.6
2017-Nov-10 18:00N 41°13' W 072°12'4 3.2
2017-Nov-10 16:39N 41°09' W 072°14'210.0
2017-Nov-10 16:30N 41°11' W 072°14'714.5
2017-Nov-10 16:00N 41°16' W 072°07'1 0.7
2017-Nov-10 14:24N 41°17' W 072°06'614.2
2017-Nov-10 13:59N 41°13' W 072°12'4 3.3
2017-Nov-10 12:44N 41°09' W 072°14'310.8
2017-Nov-10 12:28N 41°12' W 072°13'612.4
2017-Nov-10 12:00N 41°16' W 072°07'  
Track history (hours):
 
Tides and Currents Weather Stations Pressure Air Temp Water Temp Dewpoint Dewpoint Depression Visibility Wind Speed Wind Dir Waves Ship Positions

Mary Ellen

Owner: CROSS SOUND FERRY SERVICES INC, NEW LONDON, CT. More information available from US FCC via Universal Licensing System and Coast Guard Vessel Documentation Center.

Last reported at 2017-Nov-19 21:41 UTC. Time now 2017-Nov-21 22:58 UTC.
Position N 41°14' W 072°09'.

Length 80 m; draft 3.3 m.

Type: Passenger vessel. MMSI: 366898190.

Date/timePositionNaut miles runAvg speedWind from/ knotsBaromVisibWave heightAir tempDewpointWater temp
2017-Nov-19 21:41N 41°14' W 072°09'3 0.4
2017-Nov-19 15:42N 41°13' W 072°05'312.8
2017-Nov-19 15:26N 41°16' W 072°05'1 0.6
2017-Nov-19 14:05N 41°17' W 072°06'114.0
2017-Nov-19 14:00N 41°16' W 072°07'712.9
2017-Nov-19 13:27N 41°11' W 072°13'1 1.8
2017-Nov-19 12:48N 41°10' W 072°13'310.9
2017-Nov-19 12:30N 41°12' W 072°11'6 0.7
2017-Nov-19 03:23N 41°17' W 072°06'513.8
2017-Nov-19 03:00N 41°14' W 072°11'5 6.6
2017-Nov-19 02:13N 41°09' W 072°14'3 9.7
2017-Nov-19 01:56N 41°12' W 072°13'614.9
2017-Nov-19 01:30N 41°16' W 072°07'1 0.9
2017-Nov-18 23:54N 41°17' W 072°06'513.4
2017-Nov-18 23:30N 41°13' W 072°10'5 4.2
2017-Nov-18 22:17N 41°09' W 072°14'2 8.7
2017-Nov-18 22:00N 41°11' W 072°13'612.9
2017-Nov-18 21:30N 41°16' W 072°07'3 1.7
2017-Nov-18 19:57N 41°18' W 072°05'715.1
2017-Nov-18 19:30N 41°13' W 072°11'4 3.5
2017-Nov-18 18:15N 41°09' W 072°14'310.9
2017-Nov-18 18:00N 41°12' W 072°13'612.3
2017-Nov-18 17:30N 41°16' W 072°07'1 0.9
2017-Nov-18 15:53N 41°17' W 072°06'514.0
2017-Nov-18 15:31N 41°13' W 072°10'5 3.5
2017-Nov-18 14:10N 41°09' W 072°14'1 7.8
2017-Nov-18 14:00N 41°10' W 072°13'713.9
2017-Nov-18 13:30N 41°16' W 072°08'2 0.2
2017-Nov-18 02:26N 41°17' W 072°05'613.6
2017-Nov-18 02:00N 41°13' W 072°10'4 3.3
2017-Nov-18 00:39N 41°09' W 072°14'1 9.1
2017-Nov-18 00:30N 41°10' W 072°14'814.9
2017-Nov-18 00:00N 41°16' W 072°07'1 0.7
2017-Nov-17 22:23N 41°17' W 072°06'613.9
2017-Nov-17 21:58N 41°12' W 072°11'3 2.1
2017-Nov-17 20:40N 41°10' W 072°13'312.7
2017-Nov-17 20:27N 41°13' W 072°12'3 0.4
2017-Nov-17 12:38N 41°10' W 072°13'211.4
2017-Nov-17 12:30N 41°11' W 072°14'815.3
2017-Nov-17 12:00N 41°16' W 072°07'  
2017-Nov-13 21:59N 41°17' W 072°06'0 0.0
2017-Nov-13 01:47N 41°17' W 072°06'414.4
2017-Nov-13 01:31N 41°14' W 072°09'6 4.4
2017-Nov-13 00:13N 41°09' W 072°14'211.1
2017-Nov-13 00:01N 41°12' W 072°14'714.2
2017-Nov-12 23:30N 41°16' W 072°07'1 0.5
2017-Nov-12 21:55N 41°17' W 072°06'612.9
2017-Nov-12 21:28N 41°13' W 072°11'4 3.0
2017-Nov-12 20:07N 41°09' W 072°14'1 9.4
2017-Nov-12 20:00N 41°10' W 072°13'8 3.8
2017-Nov-12 17:50N 41°16' W 072°06'413.7
2017-Nov-12 17:31N 41°13' W 072°10'5 4.0
2017-Nov-12 16:15N 41°09' W 072°14'312.0
2017-Nov-12 16:00N 41°12' W 072°12'612.4
2017-Nov-12 15:30N 41°16' W 072°07'1 0.5
2017-Nov-12 13:48N 41°16' W 072°06'414.4
2017-Nov-12 13:30N 41°13' W 072°10'5 0.4
2017-Nov-12 02:12N 41°09' W 072°14'312.1
2017-Nov-12 01:58N 41°12' W 072°12'612.3
2017-Nov-12 01:28N 41°16' W 072°07'1 0.8
2017-Nov-11 23:56N 41°17' W 072°05'614.1
2017-Nov-11 23:30N 41°12' W 072°11'3 2.5
2017-Nov-11 22:08N 41°09' W 072°13'212.1
2017-Nov-11 21:56N 41°12' W 072°13'7 3.7
2017-Nov-11 19:58N 41°17' W 072°06'10 5.4
2017-Nov-11 18:10N 41°09' W 072°14'1 8.1
2017-Nov-11 18:00N 41°10' W 072°13'814.4
2017-Nov-11 17:29N 41°16' W 072°07'1 0.8
2017-Nov-11 15:56N 41°17' W 072°06'613.7
2017-Nov-11 15:30N 41°12' W 072°11'4 2.9
2017-Nov-11 14:11N 41°09' W 072°14'212.2
2017-Nov-11 14:00N 41°11' W 072°13'612.6
2017-Nov-11 13:29N 41°16' W 072°07'1 0.1
2017-Nov-11 02:16N 41°16' W 072°06'415.1
2017-Nov-11 02:00N 41°14' W 072°10'5 4.1
2017-Nov-11 00:44N 41°09' W 072°14'310.9
2017-Nov-11 00:29N 41°12' W 072°13'612.7
2017-Nov-10 23:59N 41°16' W 072°07'0 0.2
2017-Nov-10 22:21N 41°16' W 072°07'0 0.1
2017-Nov-10 18:25N 41°16' W 072°07'512.6
2017-Nov-10 18:00N 41°13' W 072°12'4 3.2
2017-Nov-10 16:39N 41°09' W 072°14'210.0
2017-Nov-10 16:30N 41°11' W 072°14'714.5
2017-Nov-10 16:00N 41°16' W 072°07'1 0.7
2017-Nov-10 14:24N 41°17' W 072°06'614.2
2017-Nov-10 13:59N 41°13' W 072°12'4 3.3
2017-Nov-10 12:44N 41°09' W 072°14'310.8
2017-Nov-10 12:28N 41°12' W 072°13'612.4
2017-Nov-10 12:00N 41°16' W 072°07'  

Dump ship's entire track history